createdAt,value
2023-03-16T00:02:03.735Z,2.53
2023-03-16T00:04:30.829Z,2.52
2023-03-16T00:06:57.925Z,2.49
2023-03-16T00:09:31.097Z,2.45
2023-03-16T00:12:04.263Z,2.45
2023-03-16T00:14:32.353Z,2.47
2023-03-16T00:16:59.080Z,2.45
2023-03-16T00:19:25.650Z,2.38
2023-03-16T00:21:52.447Z,2.40
2023-03-16T00:24:19.855Z,2.43
2023-03-16T00:26:47.084Z,2.39
2023-03-16T00:29:14.088Z,2.35
2023-03-16T00:31:44.183Z,2.36
2023-03-16T00:34:11.685Z,2.33
2023-03-16T00:36:38.399Z,2.31
2023-03-16T00:39:06.709Z,2.31
2023-03-16T00:41:38.102Z,2.32
2023-03-16T00:44:05.717Z,2.29
2023-03-16T00:46:32.621Z,2.21
2023-03-16T00:48:59.292Z,2.24
2023-03-16T00:51:25.923Z,2.19
2023-03-16T00:53:55.353Z,2.19
2023-03-16T00:56:22.397Z,2.17
2023-03-16T00:58:48.976Z,2.19
2023-03-16T01:01:19.112Z,2.18
2023-03-16T01:03:46.492Z,2.17
2023-03-16T01:06:15.303Z,2.14
2023-03-16T01:08:42.160Z,2.13
2023-03-16T01:11:16.342Z,2.04
2023-03-16T01:13:44.782Z,2.10
2023-03-16T01:16:11.528Z,2.09
2023-03-16T01:18:38.561Z,2.09
2023-03-16T01:21:07.941Z,2.13
2023-03-16T01:23:35.555Z,2.12
2023-03-16T01:26:02.347Z,2.06
2023-03-16T01:28:31.996Z,2.12
2023-03-16T01:31:04.822Z,2.08
2023-03-16T01:33:33.744Z,2.07
2023-03-16T01:36:11.983Z,2.06
2023-03-16T01:38:59.269Z,2.05
2023-03-16T01:41:29.063Z,1.96
2023-03-16T01:43:58.561Z,1.95
2023-03-16T01:46:28.623Z,1.97
2023-03-16T01:49:10.888Z,1.95
2023-03-16T01:51:53.294Z,1.93
2023-03-16T01:54:36.440Z,1.89
2023-03-16T01:57:15.786Z,1.88
2023-03-16T01:59:47.650Z,1.91
2023-03-16T02:02:15.797Z,1.89
2023-03-16T02:04:47.137Z,1.85
2023-03-16T02:07:18.306Z,1.82
2023-03-16T02:09:47.184Z,1.83
2023-03-16T02:12:18.468Z,1.82
2023-03-16T02:14:50.303Z,1.80
2023-03-16T02:17:19.673Z,1.78
2023-03-16T02:19:52.750Z,1.76
2023-03-16T02:22:19.709Z,1.73
2023-03-16T02:24:46.339Z,1.70
2023-03-16T02:27:14.125Z,1.67
2023-03-16T02:29:53.767Z,1.69
2023-03-16T02:32:21.400Z,1.68
2023-03-16T02:34:48.004Z,1.61
2023-03-16T02:37:15.084Z,1.59
2023-03-16T02:39:45.417Z,1.60
2023-03-16T02:42:17.569Z,1.55
2023-03-16T02:44:47.392Z,1.59
2023-03-16T02:47:31.147Z,1.57
2023-03-16T02:49:57.906Z,1.56
2023-03-16T02:52:24.757Z,1.55
2023-03-16T02:54:51.453Z,1.51
2023-03-16T02:57:18.039Z,1.50
2023-03-16T02:59:44.738Z,1.51
2023-03-16T03:02:11.532Z,1.47
2023-03-16T03:04:38.136Z,1.50
2023-03-16T03:07:06.795Z,1.46
2023-03-16T03:09:47.064Z,1.49
2023-03-16T03:12:13.793Z,1.43
2023-03-16T03:14:40.385Z,1.38
2023-03-16T03:17:08.321Z,1.31
2023-03-16T03:19:35.513Z,1.33
2023-03-16T03:22:06.590Z,1.36
2023-03-16T03:24:34.211Z,1.32
2023-03-16T03:27:04.075Z,1.35
2023-03-16T03:29:34.652Z,1.34
2023-03-16T03:32:02.056Z,1.33
2023-03-16T03:34:29.401Z,1.34
2023-03-16T03:36:58.690Z,1.34
2023-03-16T03:39:25.908Z,1.32
2023-03-16T03:41:56.116Z,1.32
2023-03-16T03:44:24.565Z,1.30
2023-03-16T03:46:51.999Z,1.28
2023-03-16T03:49:18.774Z,1.31
2023-03-16T03:51:47.110Z,1.32
2023-03-16T03:54:17.550Z,1.28
2023-03-16T03:56:53.741Z,1.26
2023-03-16T03:59:22.575Z,1.23
2023-03-16T04:02:19.908Z,1.15
2023-03-16T04:04:50.541Z,1.17
2023-03-16T04:07:17.550Z,1.15
2023-03-16T04:09:45.292Z,1.13
2023-03-16T04:12:22.146Z,1.10
2023-03-16T04:14:48.762Z,1.04
2023-03-16T04:17:16.565Z,1.08
2023-03-16T04:19:43.861Z,1.08
2023-03-16T04:22:14.147Z,1.09
2023-03-16T04:24:43.304Z,1.02
2023-03-16T04:27:12.182Z,1.02
2023-03-16T04:29:39.809Z,1.00
2023-03-16T04:32:07.655Z,0.95
2023-03-16T04:34:35.069Z,0.88
2023-03-16T04:37:04.463Z,0.92
2023-03-16T04:39:33.292Z,0.94
2023-03-16T04:42:01.775Z,0.92
2023-03-16T04:44:28.386Z,0.91
2023-03-16T04:46:55.575Z,0.90
2023-03-16T04:49:24.862Z,0.93
2023-03-16T04:51:51.460Z,0.92
2023-03-16T04:54:19.638Z,0.86
2023-03-16T04:56:46.220Z,0.91
2023-03-16T04:59:27.326Z,0.83
2023-03-16T05:02:06.928Z,0.86
2023-03-16T05:04:34.593Z,0.84
2023-03-16T05:07:02.209Z,0.79
2023-03-16T05:09:33.311Z,0.77
2023-03-16T05:11:59.910Z,0.79
2023-03-16T05:14:27.064Z,0.82
2023-03-16T05:17:09.232Z,0.76
2023-03-16T05:19:36.011Z,0.75
2023-03-16T05:22:02.646Z,0.75
2023-03-16T05:24:30.022Z,0.78
2023-03-16T05:26:57.639Z,0.78
2023-03-16T05:29:26.597Z,0.78
2023-03-16T05:31:53.216Z,0.77
2023-03-16T05:34:22.882Z,0.73
2023-03-16T05:36:50.049Z,0.73
2023-03-16T05:39:18.117Z,0.74
2023-03-16T05:41:47.741Z,0.72
2023-03-16T05:44:20.763Z,0.74
2023-03-16T05:47:13.820Z,0.77
2023-03-16T05:49:44.365Z,0.76
2023-03-16T05:52:20.874Z,0.72
2023-03-16T05:54:47.509Z,0.81
2023-03-16T05:57:14.546Z,0.80
2023-03-16T05:59:44.233Z,0.77
2023-03-16T06:02:11.974Z,0.80
2023-03-16T06:04:38.533Z,0.81
2023-03-16T06:07:05.345Z,0.79
2023-03-16T06:09:31.925Z,0.83
2023-03-16T06:11:59.117Z,0.86
2023-03-16T06:14:25.752Z,0.95
2023-03-16T06:16:54.756Z,1.03
2023-03-16T06:19:21.984Z,1.06
2023-03-16T06:21:53.753Z,1.12
2023-03-16T06:24:21.350Z,1.13
2023-03-16T06:26:47.914Z,1.19
2023-03-16T06:29:14.694Z,1.19
2023-03-16T06:31:41.955Z,1.22
2023-03-16T06:34:08.676Z,1.23
2023-03-16T06:36:35.506Z,1.28
2023-03-16T06:39:04.553Z,1.24
2023-03-16T06:41:38.525Z,1.30
2023-03-16T06:44:06.320Z,1.27
2023-03-16T06:46:36.208Z,1.32
2023-03-16T06:49:04.566Z,1.41
2023-03-16T06:51:31.742Z,1.51
2023-03-16T06:53:58.490Z,1.59
2023-03-16T06:56:25.998Z,1.61
2023-03-16T06:58:52.585Z,1.71
2023-03-16T07:01:19.299Z,1.82
2023-03-16T07:03:45.940Z,1.97
2023-03-16T07:06:17.702Z,2.11
2023-03-16T07:08:44.508Z,2.23
2023-03-16T07:11:11.583Z,2.25
2023-03-16T07:13:38.464Z,2.51
2023-03-16T07:16:05.936Z,2.72
2023-03-16T07:18:32.844Z,2.91
2023-03-16T07:20:59.592Z,3.10
2023-03-16T07:23:26.898Z,3.18
2023-03-16T07:25:59.026Z,3.43
2023-03-16T07:28:25.864Z,3.62
2023-03-16T07:31:03.515Z,3.81
2023-03-16T07:33:36.326Z,4.03
2023-03-16T07:36:06.109Z,4.23
2023-03-16T07:38:37.299Z,4.35
2023-03-16T07:41:04.398Z,4.63
2023-03-16T07:43:31.102Z,4.80
2023-03-16T07:45:57.862Z,5.10
2023-03-16T07:48:25.055Z,5.24
2023-03-16T07:50:56.168Z,5.69
2023-03-16T07:53:23.860Z,5.95
2023-03-16T07:55:59.232Z,6.22
2023-03-16T07:58:26.064Z,6.47
2023-03-16T08:00:56.636Z,6.71
2023-03-16T08:03:23.846Z,6.87
2023-03-16T08:05:51.445Z,6.96
2023-03-16T08:08:18.622Z,7.02
2023-03-16T08:10:47.965Z,7.39
2023-03-16T08:13:17.956Z,7.79
2023-03-16T08:15:47.640Z,8.10
2023-03-16T08:18:28.248Z,8.26
2023-03-16T08:20:54.987Z,8.43
2023-03-16T08:23:22.414Z,8.92
2023-03-16T08:25:52.759Z,9.07
2023-03-16T08:28:21.831Z,9.60
2023-03-16T08:30:51.408Z,9.66
2023-03-16T08:33:26.096Z,9.82
2023-03-16T08:35:52.861Z,9.90
2023-03-16T08:38:20.272Z,9.99
2023-03-16T08:40:50.638Z,10.00
2023-03-16T08:43:19.554Z,10.32
2023-03-16T08:45:47.830Z,10.69
2023-03-16T08:48:16.288Z,10.88
2023-03-16T08:50:46.203Z,10.84
2023-03-16T08:53:13.997Z,11.05
2023-03-16T08:55:44.119Z,11.14
2023-03-16T08:58:12.321Z,11.34
2023-03-16T09:00:39.523Z,11.72
2023-03-16T09:03:06.756Z,11.73
2023-03-16T09:05:34.188Z,11.73
2023-03-16T09:08:01.651Z,11.78
2023-03-16T09:10:29.067Z,12.04
2023-03-16T09:12:55.790Z,12.13
2023-03-16T09:15:22.519Z,11.95
2023-03-16T09:17:49.256Z,11.97
2023-03-16T09:20:26.976Z,12.17
2023-03-16T09:22:56.725Z,12.22
2023-03-16T09:25:24.333Z,12.32
2023-03-16T09:27:51.258Z,12.40
2023-03-16T09:30:18.267Z,12.76
2023-03-16T09:32:45.591Z,13.13
2023-03-16T09:35:12.177Z,13.42
2023-03-16T09:37:45.156Z,13.62
2023-03-16T09:40:25.271Z,13.73
2023-03-16T09:43:20.118Z,13.84
2023-03-16T09:46:17.874Z,14.07
2023-03-16T09:48:45.222Z,14.32
2023-03-16T09:51:33.364Z,14.56
2023-03-16T09:54:02.987Z,14.30
2023-03-16T09:56:36.631Z,14.41
2023-03-16T09:59:10.579Z,14.77
2023-03-16T10:01:49.891Z,14.81
2023-03-16T10:04:36.342Z,14.97
2023-03-16T10:07:22.289Z,15.01
2023-03-16T10:09:58.842Z,14.84
2023-03-16T10:12:37.555Z,14.85
2023-03-16T10:15:07.417Z,14.74
2023-03-16T10:17:40.646Z,14.70
2023-03-16T10:20:13.038Z,14.93
2023-03-16T10:22:43.365Z,15.17
2023-03-16T10:25:13.093Z,15.57
2023-03-16T10:27:43.446Z,15.69
2023-03-16T10:30:22.317Z,15.62
2023-03-16T10:32:49.572Z,15.77
2023-03-16T10:35:27.841Z,15.98
2023-03-16T10:37:54.869Z,16.36
2023-03-16T10:40:22.274Z,16.48
2023-03-16T10:42:49.264Z,16.44
2023-03-16T10:45:34.692Z,16.52
2023-03-16T10:48:11.695Z,16.72
2023-03-16T10:50:39.652Z,16.81
2023-03-16T10:53:16.703Z,16.83
2023-03-16T10:55:47.545Z,16.75
2023-03-16T10:58:30.805Z,15.39
2023-03-16T11:00:57.502Z,17.06
2023-03-16T11:03:31.665Z,17.75
2023-03-16T11:06:00.860Z,18.14
2023-03-16T11:08:30.791Z,18.60
2023-03-16T11:11:00.862Z,18.59
2023-03-16T11:13:36.222Z,18.49
2023-03-16T11:16:18.007Z,18.84
2023-03-16T11:18:48.411Z,18.60
2023-03-16T11:21:41.187Z,18.65
2023-03-16T11:24:17.177Z,19.72
2023-03-16T11:26:45.043Z,20.39
2023-03-16T11:29:34.629Z,20.03
2023-03-16T11:32:22.983Z,20.48
2023-03-16T11:34:53.290Z,20.96
2023-03-16T11:37:39.344Z,21.71
2023-03-16T11:40:38.525Z,22.43
2023-03-16T11:43:39.585Z,22.57
2023-03-16T11:46:58.709Z,22.13
2023-03-16T11:49:51.330Z,22.69
2023-03-16T11:52:42.268Z,23.66
2023-03-16T11:55:21.458Z,23.47
2023-03-16T11:58:03.704Z,23.34
2023-03-16T12:00:58.530Z,22.37
2023-03-16T12:03:54.111Z,21.88
2023-03-16T12:06:52.650Z,21.85
2023-03-16T12:09:30.378Z,21.58
2023-03-16T12:12:01.873Z,22.10
2023-03-16T12:14:35.186Z,22.25
2023-03-16T12:17:10.948Z,21.86
2023-03-16T12:19:43.709Z,21.52
2023-03-16T12:22:25.480Z,20.93
2023-03-16T12:24:52.413Z,21.06
2023-03-16T12:27:25.958Z,21.16
2023-03-16T12:30:30.398Z,22.10
2023-03-16T12:33:18.350Z,22.75
2023-03-16T12:36:03.379Z,22.45
2023-03-16T12:38:53.564Z,21.59
2023-03-16T12:41:49.777Z,22.36
2023-03-16T12:44:22.861Z,22.78
2023-03-16T12:47:08.244Z,21.78
2023-03-16T12:49:36.867Z,23.18
2023-03-16T12:52:11.199Z,23.85
2023-03-16T12:55:06.040Z,24.07
2023-03-16T12:57:33.015Z,24.68
2023-03-16T13:00:00.907Z,24.16
2023-03-16T13:02:32.936Z,24.04
2023-03-16T13:05:09.564Z,24.42
2023-03-16T13:07:37.778Z,24.46
2023-03-16T13:10:10.083Z,24.25
2023-03-16T13:12:38.447Z,23.55
2023-03-16T13:15:21.370Z,23.60
2023-03-16T13:17:49.040Z,23.56
2023-03-16T13:20:32.011Z,23.83
2023-03-16T13:23:17.321Z,23.68
2023-03-16T13:25:46.396Z,23.82
2023-03-16T13:28:14.444Z,23.48
2023-03-16T13:30:48.935Z,23.44
2023-03-16T13:33:27.313Z,22.68
2023-03-16T13:35:55.337Z,23.17
2023-03-16T13:38:27.372Z,23.11
2023-03-16T13:41:06.129Z,22.77
2023-03-16T13:43:35.752Z,22.88
2023-03-16T13:46:04.248Z,23.04
2023-03-16T13:48:37.009Z,23.42
2023-03-16T13:51:03.839Z,22.82
2023-03-16T13:53:32.953Z,23.01
2023-03-16T13:56:02.208Z,22.05
2023-03-16T13:58:33.624Z,21.20
2023-03-16T14:01:03.600Z,20.44
2023-03-16T14:03:38.962Z,19.38
2023-03-16T14:06:07.060Z,18.04
2023-03-16T14:08:34.759Z,16.47
2023-03-16T14:11:01.851Z,15.79
2023-03-16T14:13:28.394Z,14.82
2023-03-16T14:15:56.963Z,15.07
2023-03-16T14:18:30.419Z,15.12
2023-03-16T14:20:57.123Z,14.30
2023-03-16T14:23:45.095Z,14.10
2023-03-16T14:26:14.071Z,13.89
2023-03-16T14:28:41.643Z,13.70
2023-03-16T14:31:13.143Z,13.41
2023-03-16T14:33:42.951Z,13.20
2023-03-16T14:36:19.583Z,13.25
2023-03-16T14:38:54.440Z,13.31
2023-03-16T14:41:26.449Z,12.88
2023-03-16T14:43:58.225Z,12.77
2023-03-16T14:46:29.419Z,12.53
2023-03-16T14:49:01.152Z,12.38
2023-03-16T14:51:29.014Z,12.21
2023-03-16T14:53:55.774Z,11.91
2023-03-16T14:56:23.338Z,11.94
2023-03-16T14:58:50.006Z,11.88
2023-03-16T15:01:18.060Z,12.08
2023-03-16T15:03:45.230Z,12.15
2023-03-16T15:06:11.792Z,12.06
2023-03-16T15:08:44.497Z,12.01
2023-03-16T15:11:11.470Z,11.68
2023-03-16T15:13:40.871Z,11.49
2023-03-16T15:16:11.555Z,11.60
2023-03-16T15:18:39.897Z,11.80
2023-03-16T15:21:12.860Z,11.46
2023-03-16T15:23:41.525Z,11.40
2023-03-16T15:26:12.308Z,11.57
2023-03-16T15:28:38.925Z,11.32
2023-03-16T15:31:06.322Z,11.15
2023-03-16T15:33:33.282Z,11.32
2023-03-16T15:36:42.941Z,11.29
2023-03-16T15:39:20.317Z,11.17
2023-03-16T15:41:47.952Z,10.94
2023-03-16T15:44:14.878Z,11.34
2023-03-16T15:46:41.602Z,11.07
2023-03-16T15:49:08.373Z,11.01
2023-03-16T15:51:35.055Z,10.64
2023-03-16T15:54:07.023Z,10.81
2023-03-16T15:56:50.944Z,10.97
2023-03-16T15:59:20.716Z,10.87
2023-03-16T16:01:47.970Z,10.98
2023-03-16T16:04:20.062Z,10.83
2023-03-16T16:06:47.598Z,10.84
2023-03-16T16:09:14.557Z,10.83
2023-03-16T16:11:41.913Z,10.69
2023-03-16T16:14:16.509Z,10.72
2023-03-16T16:16:45.887Z,10.66
2023-03-16T16:19:16.610Z,10.40
2023-03-16T16:21:43.925Z,10.47
2023-03-16T16:24:10.775Z,10.47
2023-03-16T16:26:50.080Z,10.51
2023-03-16T16:29:31.970Z,10.60
2023-03-16T16:31:59.157Z,10.53
2023-03-16T16:34:27.146Z,10.42
2023-03-16T16:36:55.183Z,10.51
2023-03-16T16:39:22.346Z,10.23
2023-03-16T16:41:50.842Z,10.19
2023-03-16T16:44:20.334Z,10.28
2023-03-16T16:46:49.244Z,10.12
2023-03-16T16:49:19.739Z,10.32
2023-03-16T16:51:46.824Z,10.02
2023-03-16T16:54:15.587Z,10.09
2023-03-16T16:56:42.851Z,10.18
2023-03-16T16:59:21.270Z,10.10
2023-03-16T17:01:50.704Z,10.11
2023-03-16T17:04:19.713Z,10.01
2023-03-16T17:06:46.750Z,9.93
2023-03-16T17:09:14.445Z,9.53
2023-03-16T17:11:42.046Z,9.75
2023-03-16T17:14:09.045Z,9.44
2023-03-16T17:16:37.170Z,9.63
2023-03-16T17:19:04.340Z,9.75
2023-03-16T17:21:31.643Z,9.57
2023-03-16T17:23:58.538Z,9.66
2023-03-16T17:26:34.407Z,9.62
2023-03-16T17:29:10.978Z,9.45
2023-03-16T17:31:39.092Z,9.43
2023-03-16T17:34:16.758Z,9.35
2023-03-16T17:36:43.724Z,9.32
2023-03-16T17:39:23.118Z,9.33
2023-03-16T17:41:54.801Z,9.17
2023-03-16T17:44:21.660Z,9.14
2023-03-16T17:46:48.575Z,8.98
2023-03-16T17:49:18.317Z,8.92
2023-03-16T17:51:45.593Z,8.90
2023-03-16T17:54:12.494Z,8.54
2023-03-16T17:56:40.367Z,8.74
2023-03-16T17:59:12.572Z,8.92
2023-03-16T18:01:39.694Z,8.84
2023-03-16T18:04:16.208Z,8.75
2023-03-16T18:06:47.014Z,8.72
2023-03-16T18:09:17.934Z,8.80
2023-03-16T18:11:49.204Z,8.91
2023-03-16T18:14:21.943Z,8.70
2023-03-16T18:16:48.521Z,8.51
2023-03-16T18:19:23.802Z,8.65
2023-03-16T18:21:51.500Z,8.36
2023-03-16T18:24:19.968Z,8.68
2023-03-16T18:26:46.593Z,8.78
2023-03-16T18:29:14.077Z,8.58
2023-03-16T18:31:42.267Z,8.71
2023-03-16T18:34:20.831Z,8.28
2023-03-16T18:36:47.473Z,8.63
2023-03-16T18:39:20.366Z,8.61
2023-03-16T18:41:47.418Z,8.64
2023-03-16T18:44:19.412Z,8.72
2023-03-16T18:46:47.217Z,8.65
2023-03-16T18:49:23.535Z,8.84
2023-03-16T18:51:53.429Z,8.95
2023-03-16T18:54:22.551Z,8.85
2023-03-16T18:56:49.767Z,8.92
2023-03-16T18:59:16.738Z,9.03
2023-03-16T19:01:44.471Z,9.14
2023-03-16T19:04:23.910Z,8.85
2023-03-16T19:06:55.332Z,8.74
2023-03-16T19:09:31.153Z,8.80
2023-03-16T19:11:58.023Z,8.58
2023-03-16T19:14:27.104Z,8.69
2023-03-16T19:16:54.729Z,8.51
2023-03-16T19:19:22.753Z,8.59
2023-03-16T19:21:51.382Z,8.78
2023-03-16T19:24:26.743Z,8.75
2023-03-16T19:26:54.288Z,8.55
2023-03-16T19:29:26.687Z,8.54
2023-03-16T19:31:54.217Z,8.68
2023-03-16T19:34:20.800Z,8.76
2023-03-16T19:36:47.474Z,8.67
2023-03-16T19:39:16.176Z,8.64
2023-03-16T19:41:44.715Z,8.61
2023-03-16T19:44:20.261Z,8.73
2023-03-16T19:46:47.077Z,8.71
2023-03-16T19:49:18.416Z,8.68
2023-03-16T19:51:44.971Z,8.51
2023-03-16T19:54:21.566Z,8.67
2023-03-16T19:56:48.698Z,8.70
2023-03-16T19:59:15.494Z,8.36
2023-03-16T20:01:42.236Z,8.64
2023-03-16T20:04:15.369Z,8.46
2023-03-16T20:06:42.049Z,8.40
2023-03-16T20:09:09.427Z,8.50
2023-03-16T20:11:36.065Z,8.50
2023-03-16T20:14:03.742Z,8.58
2023-03-16T20:16:35.196Z,8.60
2023-03-16T20:19:05.305Z,8.31
2023-03-16T20:21:32.679Z,8.52
2023-03-16T20:23:59.225Z,8.54
2023-03-16T20:26:32.247Z,8.57
2023-03-16T20:29:00.017Z,8.57
2023-03-16T20:31:30.038Z,8.56
2023-03-16T20:33:57.310Z,8.41
2023-03-16T20:36:24.376Z,8.41
2023-03-16T20:38:51.357Z,8.38
2023-03-16T20:41:26.745Z,8.21
2023-03-16T20:43:54.914Z,8.13
2023-03-16T20:46:30.307Z,8.27
2023-03-16T20:48:57.441Z,8.21
2023-03-16T20:51:24.733Z,8.19
2023-03-16T20:53:51.422Z,8.39
2023-03-16T20:56:20.760Z,8.50
2023-03-16T20:58:49.974Z,8.20
2023-03-16T21:01:21.562Z,8.12
2023-03-16T21:03:50.362Z,8.17
2023-03-16T21:06:25.727Z,8.31
2023-03-16T21:08:53.454Z,8.32
2023-03-16T21:11:31.608Z,7.76
2023-03-16T21:13:58.217Z,7.97
2023-03-16T21:16:25.340Z,7.96
2023-03-16T21:18:51.983Z,8.03
2023-03-16T21:21:19.817Z,7.98
2023-03-16T21:23:46.619Z,8.08
2023-03-16T21:26:23.694Z,8.07
2023-03-16T21:29:02.177Z,8.21
2023-03-16T21:31:28.940Z,8.14
2023-03-16T21:33:55.678Z,8.04
2023-03-16T21:36:26.279Z,8.13
2023-03-16T21:38:53.710Z,8.12
2023-03-16T21:41:20.413Z,8.01
2023-03-16T21:43:47.523Z,7.62
2023-03-16T21:46:17.094Z,7.85
2023-03-16T21:48:44.806Z,7.85
2023-03-16T21:51:22.134Z,7.84
2023-03-16T21:53:49.707Z,7.86
2023-03-16T21:56:22.934Z,8.05
2023-03-16T21:58:50.173Z,7.83
2023-03-16T22:01:31.575Z,7.99
2023-03-16T22:04:02.869Z,7.81
2023-03-16T22:06:29.550Z,7.80
2023-03-16T22:08:57.540Z,7.70
2023-03-16T22:11:28.178Z,7.74
2023-03-16T22:13:55.796Z,7.79
2023-03-16T22:16:24.749Z,7.55
2023-03-16T22:18:53.532Z,7.74
2023-03-16T22:21:40.968Z,7.88
2023-03-16T22:24:16.617Z,7.80
2023-03-16T22:26:43.373Z,7.86
2023-03-16T22:29:28.396Z,7.86
2023-03-16T22:31:58.507Z,7.70
2023-03-16T22:34:33.653Z,7.78
2023-03-16T22:37:01.265Z,7.74
2023-03-16T22:39:30.827Z,7.68
2023-03-16T22:41:57.406Z,7.82
2023-03-16T22:44:23.968Z,7.74
2023-03-16T22:46:51.077Z,7.79
2023-03-16T22:49:23.394Z,7.76
2023-03-16T22:51:51.585Z,7.70
2023-03-16T22:54:20.301Z,7.67
2023-03-16T22:56:47.798Z,7.46
2023-03-16T22:59:18.234Z,7.54
2023-03-16T23:01:46.642Z,7.71
2023-03-16T23:04:32.836Z,7.44
2023-03-16T23:06:59.469Z,7.40
2023-03-16T23:09:26.310Z,7.48
2023-03-16T23:11:54.398Z,7.60
2023-03-16T23:14:24.173Z,7.65
2023-03-16T23:16:54.458Z,7.28
2023-03-16T23:19:27.022Z,7.60
2023-03-16T23:21:55.278Z,7.59
2023-03-16T23:24:22.075Z,7.37
2023-03-16T23:26:49.525Z,7.45
2023-03-16T23:29:16.148Z,7.20
2023-03-16T23:31:42.761Z,7.16
2023-03-16T23:34:11.916Z,7.11
2023-03-16T23:36:38.508Z,7.09
2023-03-16T23:39:05.198Z,7.20
2023-03-16T23:41:31.975Z,7.09
2023-03-16T23:43:58.560Z,7.32
2023-03-16T23:46:28.298Z,7.25
2023-03-16T23:48:57.276Z,7.30
2023-03-16T23:51:37.423Z,7.17
2023-03-16T23:54:17.740Z,7.19
2023-03-16T23:56:44.309Z,7.14
2023-03-16T23:59:11.248Z,7.07
